Laguna Larga, Argentina
Current Conditions -  °F | °C
As of 3:00 PM on Sunday 21 Dec 2014 (Local Time) from SACO Reporting Station
Few Clouds Few Clouds  
Wind Chill: 70°   Ceiling: Unl
Heat Index: 70°   Visibility: 6mi
Dew Point: 36°   Wind: 12mph
Humidity: 28%   Direction: 180°S
Pressure: 29.91"   Gusts: NA
Location:  31.77°S, 63.8°W
Report Text: SACO 211800Z 18010KT 9999 FEW030 FEW035TCU 21/02 Q1013
Loading
Personal Weather Stations






























Interactive Weather Map New forecast layout! Learn more

10-Day Weather Forecast

Advertisements
Track Severe Weather on mobile